createdAt,value
2022-12-31T00:01:08.157Z,100.20
2022-12-31T00:03:38.328Z,113.38
2022-12-31T00:06:22.488Z,116.38
2022-12-31T00:08:51.820Z,109.25
2022-12-31T00:13:47.666Z,111.88
2022-12-31T00:16:24.528Z,104.47
2022-12-31T00:18:59.408Z,110.88
2022-12-31T00:21:30.466Z,118.97
2022-12-31T00:23:58.937Z,97.05
2022-12-31T00:26:29.358Z,102.60
2022-12-31T00:28:59.300Z,119.38
2022-12-31T00:31:29.559Z,122.30
2022-12-31T00:33:58.200Z,114.82
2022-12-31T00:36:39.989Z,98.70
2022-12-31T00:39:08.616Z,99.93
2022-12-31T00:41:36.645Z,108.60
2022-12-31T00:44:05.789Z,117.75
2022-12-31T00:46:33.061Z,112.78
2022-12-31T00:49:00.517Z,126.60
2022-12-31T00:51:28.277Z,121.10
2022-12-31T00:53:58.214Z,140.65
2022-12-31T00:56:29.204Z,136.45
2022-12-31T00:58:56.875Z,119.93
2022-12-31T01:01:30.892Z,124.82
2022-12-31T01:04:01.846Z,121.97
2022-12-31T01:06:30.518Z,144.02
2022-12-31T01:08:58.682Z,125.93
2022-12-31T01:11:29.521Z,153.35
2022-12-31T01:14:05.211Z,141.30
2022-12-31T01:16:39.915Z,110.47
2022-12-31T01:19:10.218Z,100.72
2022-12-31T01:21:39.842Z,104.35
2022-12-31T01:24:08.170Z,117.85
2022-12-31T01:26:37.537Z,110.00
2022-12-31T01:29:07.007Z,133.65
2022-12-31T01:31:35.833Z,131.13
2022-12-31T01:34:04.487Z,131.20
2022-12-31T01:36:34.017Z,139.43
2022-12-31T01:39:03.047Z,151.88
2022-12-31T01:41:33.995Z,123.05
2022-12-31T01:44:11.440Z,169.93
2022-12-31T01:46:56.997Z,171.98
2022-12-31T01:49:42.899Z,159.40
2022-12-31T01:52:27.480Z,163.68
2022-12-31T01:55:00.399Z,150.15
2022-12-31T01:57:28.479Z,116.15
2022-12-31T01:59:57.083Z,124.03
2022-12-31T02:02:24.755Z,127.10
2022-12-31T02:04:55.597Z,112.57
2022-12-31T02:07:23.815Z,108.88
2022-12-31T02:09:52.043Z,121.78
2022-12-31T02:12:19.800Z,117.93
2022-12-31T02:14:50.873Z,124.75
2022-12-31T02:17:36.786Z,106.50
2022-12-31T02:20:13.058Z,144.90
2022-12-31T02:23:17.973Z,135.70
2022-12-31T02:26:03.654Z,129.75
2022-12-31T02:28:51.486Z,129.20
2022-12-31T02:31:33.437Z,144.23
2022-12-31T02:34:13.881Z,155.73
2022-12-31T02:36:47.538Z,125.25
2022-12-31T02:39:15.950Z,110.15
2022-12-31T02:41:52.059Z,133.65
2022-12-31T02:44:34.793Z,99.38
2022-12-31T02:47:09.294Z,108.38
2022-12-31T02:50:14.358Z,117.03
2022-12-31T02:52:45.575Z,153.40
2022-12-31T02:55:31.771Z,158.55
2022-12-31T02:58:23.047Z,145.98
2022-12-31T03:01:16.233Z,145.65
2022-12-31T03:03:43.871Z,166.63
2022-12-31T03:06:12.414Z,141.77
2022-12-31T03:09:02.521Z,153.68
2022-12-31T03:11:48.973Z,153.48
2022-12-31T03:14:16.066Z,125.30
2022-12-31T03:16:43.841Z,135.65
2022-12-31T03:19:34.973Z,143.57
2022-12-31T03:22:22.974Z,137.85
2022-12-31T03:25:08.477Z,122.50
2022-12-31T03:27:37.239Z,128.02
2022-12-31T03:30:05.592Z,150.77
2022-12-31T03:32:36.401Z,147.75
2022-12-31T03:35:04.671Z,137.40
2022-12-31T03:37:33.799Z,137.88
2022-12-31T03:40:00.805Z,134.90
2022-12-31T03:42:28.108Z,134.40
2022-12-31T03:44:55.225Z,141.27
2022-12-31T03:47:22.618Z,126.57
2022-12-31T03:49:49.652Z,139.45
2022-12-31T03:52:17.045Z,137.40
2022-12-31T03:54:44.721Z,118.70
2022-12-31T03:57:12.532Z,125.97
2022-12-31T03:59:39.888Z,125.13
2022-12-31T04:02:07.567Z,136.80
2022-12-31T04:04:34.761Z,154.93
2022-12-31T04:07:05.022Z,124.47
2022-12-31T04:09:32.526Z,98.88
2022-12-31T04:12:00.328Z,90.20
2022-12-31T04:14:30.972Z,110.97
2022-12-31T04:16:59.933Z,125.82
2022-12-31T04:19:27.437Z,162.40
2022-12-31T04:21:54.842Z,163.80
2022-12-31T04:24:21.946Z,151.20
2022-12-31T04:26:49.408Z,161.38
2022-12-31T04:29:16.621Z,156.48
2022-12-31T04:31:44.721Z,139.45
2022-12-31T04:34:11.746Z,147.98
2022-12-31T04:36:39.536Z,135.70
2022-12-31T04:39:07.761Z,143.00
2022-12-31T04:41:35.130Z,133.65
2022-12-31T04:44:02.618Z,145.50
2022-12-31T04:46:32.661Z,156.40
2022-12-31T04:49:01.045Z,155.85
2022-12-31T04:51:33.693Z,156.50
2022-12-31T04:54:03.417Z,156.52
2022-12-31T04:56:33.078Z,165.63
2022-12-31T05:01:57.971Z,161.50
2022-12-31T05:04:42.410Z,156.77
2022-12-31T05:07:09.892Z,166.80
2022-12-31T05:09:37.077Z,168.90
2022-12-31T05:12:04.783Z,160.48
2022-12-31T05:14:31.872Z,173.77
2022-12-31T05:16:59.506Z,166.02
2022-12-31T05:19:26.597Z,163.88
2022-12-31T05:22:13.750Z,174.15
2022-12-31T05:24:45.513Z,164.77
2022-12-31T05:27:12.991Z,170.88
2022-12-31T05:29:39.977Z,163.57
2022-12-31T05:32:07.456Z,155.82
2022-12-31T05:34:34.523Z,133.98
2022-12-31T05:37:03.300Z,128.77
2022-12-31T05:39:30.987Z,130.23
2022-12-31T05:42:00.903Z,77.72
2022-12-31T05:44:28.567Z,87.63
2022-12-31T05:46:57.116Z,132.85
2022-12-31T05:49:24.163Z,142.40
2022-12-31T05:51:51.532Z,144.85
2022-12-31T05:54:23.491Z,165.48
2022-12-31T05:57:06.592Z,146.45
2022-12-31T05:59:34.740Z,174.80
2022-12-31T06:02:01.945Z,160.27
2022-12-31T06:04:29.326Z,155.60
2022-12-31T06:06:58.784Z,181.25
2022-12-31T06:09:27.390Z,151.68
2022-12-31T06:14:45.947Z,157.68
2022-12-31T06:17:13.209Z,167.00
2022-12-31T06:19:40.640Z,171.48
2022-12-31T06:22:07.811Z,157.73
2022-12-31T06:24:35.679Z,165.57
2022-12-31T06:27:02.720Z,166.32
2022-12-31T06:29:31.323Z,158.77
2022-12-31T06:35:06.170Z,162.52
2022-12-31T06:37:48.498Z,156.35
2022-12-31T06:40:31.242Z,153.63
2022-12-31T06:43:00.282Z,158.50
2022-12-31T06:45:28.574Z,152.75
2022-12-31T06:47:56.914Z,164.27
2022-12-31T06:50:23.878Z,168.65
2022-12-31T06:52:51.631Z,152.15
2022-12-31T06:55:19.880Z,150.68
2022-12-31T06:57:48.131Z,165.93
2022-12-31T07:00:16.357Z,154.73
2022-12-31T07:03:14.285Z,146.30
2022-12-31T07:05:55.774Z,142.85
2022-12-31T07:08:48.158Z,143.45
2022-12-31T07:11:26.124Z,138.65
2022-12-31T07:14:09.723Z,177.65
2022-12-31T07:16:36.771Z,202.73
2022-12-31T07:19:32.629Z,182.00
2022-12-31T07:24:27.935Z,208.75
2022-12-31T07:27:17.596Z,219.27
2022-12-31T07:30:01.819Z,197.95
2022-12-31T07:32:39.869Z,198.13
2022-12-31T07:35:32.956Z,188.90
2022-12-31T07:38:20.929Z,200.73
2022-12-31T07:41:30.621Z,182.35
2022-12-31T07:44:40.158Z,185.18
2022-12-31T07:47:29.682Z,179.48
2022-12-31T07:49:58.311Z,182.07
2022-12-31T07:52:27.521Z,179.23
2022-12-31T07:54:56.390Z,184.68
2022-12-31T07:57:38.416Z,176.93
2022-12-31T08:00:15.895Z,164.02
2022-12-31T08:02:55.268Z,176.00
2022-12-31T08:05:59.981Z,155.20
2022-12-31T08:08:35.459Z,168.23
2022-12-31T08:11:07.758Z,164.80
2022-12-31T08:13:37.533Z,135.00
2022-12-31T08:16:12.427Z,153.02
2022-12-31T08:18:40.705Z,152.18
2022-12-31T08:21:34.500Z,144.82
2022-12-31T08:24:36.145Z,155.18
2022-12-31T08:27:17.163Z,142.77
2022-12-31T08:29:56.575Z,134.68
2022-12-31T08:32:52.474Z,150.75
2022-12-31T08:35:40.052Z,135.13
2022-12-31T08:41:53.125Z,140.60
2022-12-31T08:45:00.322Z,121.53
2022-12-31T08:48:00.172Z,132.00
2022-12-31T08:50:37.145Z,116.95
2022-12-31T08:53:07.661Z,110.95
2022-12-31T08:55:36.521Z,111.57
2022-12-31T09:01:27.751Z,131.25
2022-12-31T09:04:15.543Z,112.35
2022-12-31T09:10:29.135Z,118.45
2022-12-31T09:16:39.263Z,115.07
2022-12-31T09:19:10.074Z,110.78
2022-12-31T09:21:38.278Z,111.55
2022-12-31T09:24:09.470Z,107.30
2022-12-31T09:26:45.851Z,94.07
2022-12-31T09:29:35.726Z,90.88
2022-12-31T09:32:24.712Z,96.15
2022-12-31T09:35:16.193Z,93.38
2022-12-31T09:40:50.873Z,91.50
2022-12-31T09:43:49.187Z,89.45
2022-12-31T09:46:58.090Z,92.57
2022-12-31T09:50:31.538Z,92.47
2022-12-31T09:53:39.456Z,91.40
2022-12-31T09:56:12.877Z,81.60
2022-12-31T09:59:03.619Z,69.97
2022-12-31T10:01:31.103Z,71.85
2022-12-31T10:04:29.559Z,82.55
2022-12-31T10:07:06.649Z,85.28
2022-12-31T10:10:01.676Z,84.93
2022-12-31T10:15:30.831Z,89.07
2022-12-31T10:18:35.609Z,77.53
2022-12-31T10:21:41.619Z,79.55
2022-12-31T10:24:53.629Z,68.95
2022-12-31T10:28:00.512Z,71.97
2022-12-31T10:30:40.992Z,70.30
2022-12-31T10:33:48.436Z,66.35
2022-12-31T10:36:30.353Z,59.97
2022-12-31T10:39:24.670Z,63.03
2022-12-31T10:42:10.121Z,61.60
2022-12-31T10:45:02.218Z,55.90
2022-12-31T10:47:58.202Z,59.78
2022-12-31T10:50:45.841Z,58.40
2022-12-31T10:59:23.556Z,34.90
2022-12-31T11:02:28.643Z,49.08
2022-12-31T11:05:11.927Z,29.00
2022-12-31T11:08:17.341Z,40.85
2022-12-31T11:11:49.007Z,28.05
2022-12-31T11:14:30.375Z,24.65
2022-12-31T11:17:34.631Z,23.63
2022-12-31T11:20:25.891Z,24.60
2022-12-31T11:22:56.287Z,22.52
2022-12-31T11:25:32.941Z,24.00
2022-12-31T11:28:11.046Z,24.80
2022-12-31T11:30:47.766Z,20.85
2022-12-31T11:33:46.786Z,24.05
2022-12-31T11:36:33.383Z,20.83
2022-12-31T11:39:25.829Z,19.77
2022-12-31T11:42:33.076Z,18.73
2022-12-31T11:45:48.690Z,16.77
2022-12-31T11:48:31.348Z,20.90
2022-12-31T11:54:15.030Z,16.67
2022-12-31T11:56:47.547Z,16.90
2022-12-31T11:59:19.274Z,17.17
2022-12-31T12:02:04.830Z,13.55
2022-12-31T12:04:32.038Z,24.20
2022-12-31T12:06:59.820Z,18.38
2022-12-31T12:09:30.396Z,16.63
2022-12-31T12:12:00.801Z,14.65
2022-12-31T12:14:38.393Z,15.70
2022-12-31T12:17:10.837Z,13.90
2022-12-31T12:19:47.825Z,11.02
2022-12-31T12:22:35.768Z,14.02
2022-12-31T12:25:16.427Z,12.70
2022-12-31T12:27:44.356Z,13.32
2022-12-31T12:30:27.053Z,13.25
2022-12-31T12:36:09.533Z,15.05
2022-12-31T12:38:40.416Z,13.60
2022-12-31T12:41:12.472Z,14.55
2022-12-31T12:43:47.264Z,12.90
2022-12-31T12:46:31.301Z,13.45
2022-12-31T12:49:01.795Z,13.85
2022-12-31T12:51:48.343Z,14.57
2022-12-31T12:54:32.352Z,11.98
2022-12-31T12:57:26.021Z,18.80
2022-12-31T13:00:10.700Z,15.27
2022-12-31T13:02:53.306Z,13.45
2022-12-31T13:05:52.052Z,15.18
2022-12-31T13:09:01.641Z,12.38
2022-12-31T13:12:07.775Z,17.35
2022-12-31T13:14:51.152Z,16.67
2022-12-31T13:17:36.950Z,17.77
2022-12-31T13:20:31.121Z,15.38
2022-12-31T13:23:07.146Z,21.98
2022-12-31T13:26:20.114Z,16.60
2022-12-31T13:31:39.397Z,24.55
2022-12-31T13:34:14.369Z,19.98
2022-12-31T13:36:45.122Z,16.88
2022-12-31T13:39:21.180Z,15.75
2022-12-31T13:42:25.794Z,21.25
2022-12-31T13:45:02.485Z,20.65
2022-12-31T13:47:47.059Z,21.02
2022-12-31T13:50:27.183Z,19.25
2022-12-31T13:53:05.256Z,15.27
2022-12-31T13:55:40.236Z,19.50
2022-12-31T13:58:16.302Z,20.27
2022-12-31T14:00:47.654Z,18.33
2022-12-31T14:03:31.118Z,18.05
2022-12-31T14:06:21.789Z,19.63
2022-12-31T14:08:48.961Z,16.13
2022-12-31T14:11:39.344Z,20.45
2022-12-31T14:14:16.419Z,22.90
2022-12-31T14:16:54.063Z,24.58
2022-12-31T14:19:48.808Z,21.20
2022-12-31T14:22:32.726Z,20.38
2022-12-31T14:25:03.149Z,25.50
2022-12-31T14:27:41.074Z,23.38
2022-12-31T14:30:19.544Z,29.77
2022-12-31T14:32:52.639Z,23.10
2022-12-31T14:35:38.773Z,25.85
2022-12-31T14:38:52.948Z,24.50
2022-12-31T14:41:44.790Z,24.77
2022-12-31T14:44:21.877Z,27.65
2022-12-31T14:46:51.649Z,24.30
2022-12-31T14:49:50.164Z,26.05
2022-12-31T14:52:22.644Z,32.63
2022-12-31T14:55:22.797Z,35.75
2022-12-31T15:03:45.838Z,45.60
2022-12-31T15:06:35.327Z,52.92
2022-12-31T15:09:25.564Z,35.65
2022-12-31T15:15:33.578Z,32.03
2022-12-31T15:18:24.482Z,31.10
2022-12-31T15:21:25.916Z,23.48
2022-12-31T15:23:56.963Z,27.20
2022-12-31T15:26:34.891Z,35.00
2022-12-31T15:29:08.500Z,26.00
2022-12-31T15:31:37.070Z,29.13
2022-12-31T15:34:23.217Z,29.25
2022-12-31T15:37:36.242Z,31.35
2022-12-31T15:40:18.230Z,36.47
2022-12-31T15:42:51.958Z,45.03
2022-12-31T15:45:48.500Z,37.92
2022-12-31T15:48:19.777Z,40.03
2022-12-31T15:50:50.999Z,56.50
2022-12-31T15:53:36.311Z,53.17
2022-12-31T15:56:05.046Z,50.15
2022-12-31T15:58:38.044Z,41.05
2022-12-31T16:01:25.479Z,40.45
2022-12-31T16:04:08.034Z,42.33
2022-12-31T16:06:46.049Z,44.50
2022-12-31T16:09:38.041Z,43.10
2022-12-31T16:12:19.440Z,43.08
2022-12-31T16:14:51.391Z,45.42
2022-12-31T16:17:35.813Z,48.58
2022-12-31T16:20:25.028Z,46.47
2022-12-31T16:22:57.626Z,48.58
2022-12-31T16:25:31.031Z,44.90
2022-12-31T16:28:02.021Z,42.67
2022-12-31T16:30:36.085Z,48.60
2022-12-31T16:33:06.576Z,46.13
2022-12-31T16:35:38.934Z,45.38
2022-12-31T16:41:12.312Z,42.33
2022-12-31T16:43:41.726Z,49.20
2022-12-31T16:49:30.564Z,45.90
2022-12-31T16:52:08.311Z,46.42
2022-12-31T16:54:39.092Z,51.67
2022-12-31T16:57:07.150Z,61.42
2022-12-31T16:59:46.953Z,51.25
2022-12-31T17:02:20.471Z,52.45
2022-12-31T17:04:56.384Z,52.65
2022-12-31T17:07:32.758Z,52.00
2022-12-31T17:10:15.010Z,50.75
2022-12-31T17:16:02.883Z,52.70
2022-12-31T17:18:38.494Z,54.55
2022-12-31T17:21:09.310Z,55.22
2022-12-31T17:23:41.044Z,51.95
2022-12-31T17:26:15.197Z,58.58
2022-12-31T17:28:46.923Z,57.15
2022-12-31T17:31:27.758Z,67.63
2022-12-31T17:34:05.142Z,66.57
2022-12-31T17:36:32.729Z,95.93
2022-12-31T17:39:20.247Z,83.70
2022-12-31T17:41:50.497Z,61.80
2022-12-31T17:44:22.242Z,63.15
2022-12-31T17:46:51.312Z,106.50
2022-12-31T17:49:22.838Z,50.63
2022-12-31T17:51:50.448Z,72.88
2022-12-31T17:54:18.978Z,61.20
2022-12-31T17:56:46.851Z,51.80
2022-12-31T17:59:22.861Z,60.10
2022-12-31T18:01:50.822Z,65.57
2022-12-31T18:04:19.404Z,60.35
2022-12-31T18:06:46.891Z,61.72
2022-12-31T18:09:14.349Z,81.82
2022-12-31T18:11:42.202Z,68.03
2022-12-31T18:14:14.144Z,400.08
2022-12-31T18:16:41.807Z,242.85
2022-12-31T18:19:45.953Z,103.43
2022-12-31T18:22:03.613Z,199.32
2022-12-31T18:24:30.842Z,70.88
2022-12-31T18:26:59.901Z,75.10
2022-12-31T18:29:26.995Z,79.03
2022-12-31T18:31:54.514Z,71.75
2022-12-31T18:34:21.612Z,52.00
2022-12-31T18:36:48.967Z,52.67
2022-12-31T18:39:16.099Z,51.13
2022-12-31T18:41:51.273Z,45.17
2022-12-31T18:44:18.330Z,50.20
2022-12-31T18:46:45.762Z,48.70
2022-12-31T18:49:12.790Z,47.17
2022-12-31T18:51:40.105Z,49.08
2022-12-31T18:54:10.607Z,51.53
2022-12-31T18:56:41.938Z,54.50
2022-12-31T18:59:13.699Z,50.38
2022-12-31T19:04:30.522Z,48.70
2022-12-31T19:06:58.442Z,52.10
2022-12-31T19:12:15.174Z,54.00
2022-12-31T19:14:52.621Z,47.63
2022-12-31T19:17:22.518Z,50.58
2022-12-31T19:19:53.258Z,48.88
2022-12-31T19:22:29.445Z,47.22
2022-12-31T19:24:56.481Z,49.08
2022-12-31T19:27:27.421Z,54.85
2022-12-31T19:29:55.352Z,61.65
2022-12-31T19:32:22.671Z,48.95
2022-12-31T19:34:49.781Z,58.05
2022-12-31T19:37:17.167Z,56.35
2022-12-31T19:39:44.259Z,48.40
2022-12-31T19:42:16.350Z,55.25
2022-12-31T19:44:46.390Z,54.28
2022-12-31T19:47:15.770Z,53.35
2022-12-31T19:49:42.737Z,62.03
2022-12-31T19:52:11.189Z,64.30
2022-12-31T19:54:39.245Z,61.45
2022-12-31T19:57:06.674Z,54.78
2022-12-31T19:59:33.605Z,55.40
2022-12-31T20:02:03.914Z,57.42
2022-12-31T20:04:31.025Z,57.70
2022-12-31T20:06:58.373Z,63.40
2022-12-31T20:09:25.459Z,62.55
2022-12-31T20:11:52.779Z,53.03
2022-12-31T20:14:24.453Z,60.38
2022-12-31T20:16:53.027Z,56.03
2022-12-31T20:19:28.320Z,56.92
2022-12-31T20:21:56.995Z,58.50
2022-12-31T20:24:25.172Z,54.15
2022-12-31T20:26:52.808Z,56.38
2022-12-31T20:31:49.122Z,44.75
2022-12-31T20:34:17.688Z,51.90
2022-12-31T20:36:49.320Z,55.92
2022-12-31T20:39:18.259Z,62.10
2022-12-31T20:44:15.737Z,52.38
2022-12-31T20:46:43.276Z,54.95
2022-12-31T20:49:11.433Z,50.10
2022-12-31T20:51:40.811Z,58.67
2022-12-31T20:54:10.692Z,61.05
2022-12-31T20:56:40.686Z,62.53
2022-12-31T20:59:10.395Z,59.20
2022-12-31T21:02:11.682Z,63.33
2022-12-31T21:04:26.026Z,65.15
2022-12-31T21:06:54.563Z,62.90
2022-12-31T21:09:22.481Z,62.47
2022-12-31T21:12:09.641Z,62.53
2022-12-31T21:14:42.820Z,62.47
2022-12-31T21:17:12.059Z,57.50
2022-12-31T21:19:39.143Z,58.08
2022-12-31T21:22:06.850Z,59.78
2022-12-31T21:24:33.924Z,55.10
2022-12-31T21:27:01.229Z,63.90
2022-12-31T21:29:32.781Z,58.33
2022-12-31T21:32:02.363Z,66.43
2022-12-31T21:34:29.370Z,65.22
2022-12-31T21:36:58.273Z,67.53
2022-12-31T21:39:25.418Z,72.72
2022-12-31T21:41:55.501Z,64.40
2022-12-31T21:44:24.581Z,79.85
2022-12-31T21:47:37.257Z,57.63
2022-12-31T21:50:06.389Z,51.97
2022-12-31T21:52:35.257Z,56.80
2022-12-31T21:55:23.918Z,56.45
2022-12-31T21:58:26.337Z,61.35
2022-12-31T22:01:00.442Z,57.85
2022-12-31T22:03:28.776Z,50.58
2022-12-31T22:06:00.077Z,56.00
2022-12-31T22:08:30.883Z,61.33
2022-12-31T22:10:58.201Z,60.17
2022-12-31T22:13:28.169Z,59.70
2022-12-31T22:16:03.982Z,86.07
2022-12-31T22:18:44.659Z,65.75
2022-12-31T22:21:18.999Z,76.80
2022-12-31T22:23:52.619Z,89.65
2022-12-31T22:26:22.427Z,117.57
2022-12-31T22:28:55.379Z,136.02
2022-12-31T22:31:27.102Z,118.72
2022-12-31T22:33:54.724Z,72.28
2022-12-31T22:36:23.351Z,81.93
2022-12-31T22:38:55.717Z,306.08
2022-12-31T22:41:27.527Z,295.52
2022-12-31T22:44:03.940Z,191.38
2022-12-31T22:46:32.294Z,108.53
2022-12-31T22:49:00.948Z,159.60
2022-12-31T22:51:30.807Z,155.32
2022-12-31T22:54:17.095Z,134.48
2022-12-31T22:56:44.057Z,124.18
2022-12-31T22:59:11.838Z,99.55
2022-12-31T23:01:39.139Z,103.65
2022-12-31T23:04:08.828Z,87.30
2022-12-31T23:06:43.641Z,84.70
2022-12-31T23:09:33.303Z,88.05
2022-12-31T23:12:01.463Z,70.45
2022-12-31T23:14:47.524Z,72.18
2022-12-31T23:17:36.608Z,79.72
2022-12-31T23:20:25.531Z,85.43
2022-12-31T23:23:11.811Z,86.03
2022-12-31T23:25:54.051Z,91.28
2022-12-31T23:28:29.379Z,79.70
2022-12-31T23:30:56.826Z,102.15
2022-12-31T23:33:26.324Z,84.47
2022-12-31T23:36:06.609Z,98.18
2022-12-31T23:38:34.907Z,88.22
2022-12-31T23:41:19.818Z,87.78
2022-12-31T23:43:50.040Z,115.65
2022-12-31T23:46:17.818Z,120.63
2022-12-31T23:48:44.904Z,108.75
2022-12-31T23:51:12.177Z,99.88
2022-12-31T23:53:39.309Z,119.45
2022-12-31T23:56:19.293Z,74.72
2022-12-31T23:58:54.573Z,74.18
